sensor_id;sensor_type;location;lat;lon;timestamp;temperature;humidity
32201;DHT22;18701;45.588;5.288;2024-02-15T00:00:40;8.60;99.90
32201;DHT22;18701;45.588;5.288;2024-02-15T00:03:06;8.50;99.90
32201;DHT22;18701;45.588;5.288;2024-02-15T00:05:39;8.60;99.90
32201;DHT22;18701;45.588;5.288;2024-02-15T00:08:05;8.80;99.90
32201;DHT22;18701;45.588;5.288;2024-02-15T00:10:31;8.70;99.90
32201;DHT22;18701;45.588;5.288;2024-02-15T00:12:57;8.80;99.90
32201;DHT22;18701;45.588;5.288;2024-02-15T00:15:23;8.80;99.90
32201;DHT22;18701;45.588;5.288;2024-02-15T00:17:49;8.70;99.90
32201;DHT22;18701;45.588;5.288;2024-02-15T00:20:14;8.70;99.90
32201;DHT22;18701;45.588;5.288;2024-02-15T00:22:40;8.60;99.90
32201;DHT22;18701;45.588;5.288;2024-02-15T00:25:08;8.60;99.90
32201;DHT22;18701;45.588;5.288;2024-02-15T00:27:37;8.70;99.90
32201;DHT22;18701;45.588;5.288;2024-02-15T00:30:03;8.60;99.90
32201;DHT22;18701;45.588;5.288;2024-02-15T00:32:33;8.70;99.90
32201;DHT22;18701;45.588;5.288;2024-02-15T00:34:58;8.60;99.90
32201;DHT22;18701;45.588;5.288;2024-02-15T00:37:24;8.70;99.90
32201;DHT22;18701;45.588;5.288;2024-02-15T00:39:49;8.50;99.90
32201;DHT22;18701;45.588;5.288;2024-02-15T00:42:15;8.50;99.90
32201;DHT22;18701;45.588;5.288;2024-02-15T00:44:41;8.60;99.90
32201;DHT22;18701;45.588;5.288;2024-02-15T00:47:09;8.50;99.90
32201;DHT22;18701;45.588;5.288;2024-02-15T00:49:35;8.40;99.90
32201;DHT22;18701;45.588;5.288;2024-02-15T00:52:01;8.30;99.90
32201;DHT22;18701;45.588;5.288;2024-02-15T00:54:27;8.20;99.90
32201;DHT22;18701;45.588;5.288;2024-02-15T00:56:52;8.30;99.90
32201;DHT22;18701;45.588;5.288;2024-02-15T00:59:18;8.20;99.90
32201;DHT22;18701;45.588;5.288;2024-02-15T01:01:44;8.40;99.90
32201;DHT22;18701;45.588;5.288;2024-02-15T01:04:10;8.40;99.90
32201;DHT22;18701;45.588;5.288;2024-02-15T01:06:35;8.40;99.90
32201;DHT22;18701;45.588;5.288;2024-02-15T01:09:02;8.30;99.90
32201;DHT22;18701;45.588;5.288;2024-02-15T01:11:29;8.10;99.90
32201;DHT22;18701;45.588;5.288;2024-02-15T01:13:57;8.40;99.90
32201;DHT22;18701;45.588;5.288;2024-02-15T01:36:35;8.20;99.90
32201;DHT22;18701;45.588;5.288;2024-02-15T01:39:00;8.10;99.90
32201;DHT22;18701;45.588;5.288;2024-02-15T01:41:26;8.10;99.90
32201;DHT22;18701;45.588;5.288;2024-02-15T01:43:51;8.20;99.90
32201;DHT22;18701;45.588;5.288;2024-02-15T01:46:18;8.20;99.90
32201;DHT22;18701;45.588;5.288;2024-02-15T01:48:45;8.20;99.90
32201;DHT22;18701;45.588;5.288;2024-02-15T01:51:12;8.20;99.90
32201;DHT22;18701;45.588;5.288;2024-02-15T01:53:40;8.30;99.90
32201;DHT22;18701;45.588;5.288;2024-02-15T01:56:07;8.20;99.90
32201;DHT22;18701;45.588;5.288;2024-02-15T01:58:33;8.20;99.90
32201;DHT22;18701;45.588;5.288;2024-02-15T02:01:00;8.30;99.90
32201;DHT22;18701;45.588;5.288;2024-02-15T02:03:26;8.40;99.90
32201;DHT22;18701;45.588;5.288;2024-02-15T02:05:52;8.30;99.90
32201;DHT22;18701;45.588;5.288;2024-02-15T02:08:18;8.50;99.90
32201;DHT22;18701;45.588;5.288;2024-02-15T02:10:44;8.50;99.90
32201;DHT22;18701;45.588;5.288;2024-02-15T02:13:11;8.50;99.90
32201;DHT22;18701;45.588;5.288;2024-02-15T02:15:37;8.30;99.90
32201;DHT22;18701;45.588;5.288;2024-02-15T02:18:04;8.30;99.90
32201;DHT22;18701;45.588;5.288;2024-02-15T02:20:34;8.40;99.90
32201;DHT22;18701;45.588;5.288;2024-02-15T02:23:07;8.30;99.90
32201;DHT22;18701;45.588;5.288;2024-02-15T02:25:33;8.40;99.90
32201;DHT22;18701;45.588;5.288;2024-02-15T02:28:00;8.40;99.90
32201;DHT22;18701;45.588;5.288;2024-02-15T02:30:26;8.50;99.90
32201;DHT22;18701;45.588;5.288;2024-02-15T02:32:55;8.60;99.90
32201;DHT22;18701;45.588;5.288;2024-02-15T02:35:22;8.60;99.90
32201;DHT22;18701;45.588;5.288;2024-02-15T02:37:48;8.70;99.90
32201;DHT22;18701;45.588;5.288;2024-02-15T02:40:13;8.70;99.90
32201;DHT22;18701;45.588;5.288;2024-02-15T02:45:13;8.50;99.90
32201;DHT22;18701;45.588;5.288;2024-02-15T02:47:39;8.50;99.90
32201;DHT22;18701;45.588;5.288;2024-02-15T02:50:05;8.50;99.90
32201;DHT22;18701;45.588;5.288;2024-02-15T02:52:31;8.40;99.90
32201;DHT22;18701;45.588;5.288;2024-02-15T02:54:57;8.20;99.90
32201;DHT22;18701;45.588;5.288;2024-02-15T02:57:23;8.10;99.90
32201;DHT22;18701;45.588;5.288;2024-02-15T02:59:49;8.10;99.90
32201;DHT22;18701;45.588;5.288;2024-02-15T03:02:14;8.20;99.90
32201;DHT22;18701;45.588;5.288;2024-02-15T03:04:40;8.10;99.90
32201;DHT22;18701;45.588;5.288;2024-02-15T03:07:06;8.10;99.90
32201;DHT22;18701;45.588;5.288;2024-02-15T03:09:31;8.10;99.90
32201;DHT22;18701;45.588;5.288;2024-02-15T03:11:59;8.20;99.90
32201;DHT22;18701;45.588;5.288;2024-02-15T03:14:26;8.30;99.90
32201;DHT22;18701;45.588;5.288;2024-02-15T03:16:52;8.80;99.90
32201;DHT22;18701;45.588;5.288;2024-02-15T03:19:20;9.10;99.90
32201;DHT22;18701;45.588;5.288;2024-02-15T03:21:45;9.20;99.90
32201;DHT22;18701;45.588;5.288;2024-02-15T03:24:12;9.40;99.90
32201;DHT22;18701;45.588;5.288;2024-02-15T03:26:37;9.60;99.90
32201;DHT22;18701;45.588;5.288;2024-02-15T03:29:04;9.70;99.90
32201;DHT22;18701;45.588;5.288;2024-02-15T03:31:30;9.70;99.90
32201;DHT22;18701;45.588;5.288;2024-02-15T03:33:58;9.80;99.90
32201;DHT22;18701;45.588;5.288;2024-02-15T03:36:24;9.80;99.90
32201;DHT22;18701;45.588;5.288;2024-02-15T03:38:50;9.80;99.90
32201;DHT22;18701;45.588;5.288;2024-02-15T03:41:18;9.80;99.90
32201;DHT22;18701;45.588;5.288;2024-02-15T03:43:43;9.80;99.90
32201;DHT22;18701;45.588;5.288;2024-02-15T03:46:09;9.90;99.90
32201;DHT22;18701;45.588;5.288;2024-02-15T03:48:37;10.00;99.90
32201;DHT22;18701;45.588;5.288;2024-02-15T03:51:03;10.00;99.90
32201;DHT22;18701;45.588;5.288;2024-02-15T03:53:29;10.00;99.90
32201;DHT22;18701;45.588;5.288;2024-02-15T03:55:56;10.00;99.90
32201;DHT22;18701;45.588;5.288;2024-02-15T03:58:22;10.10;99.90
32201;DHT22;18701;45.588;5.288;2024-02-15T04:00:47;10.10;99.90
32201;DHT22;18701;45.588;5.288;2024-02-15T04:03:14;10.00;99.90
32201;DHT22;18701;45.588;5.288;2024-02-15T04:05:39;10.00;99.90
32201;DHT22;18701;45.588;5.288;2024-02-15T04:08:05;10.00;99.90
32201;DHT22;18701;45.588;5.288;2024-02-15T04:10:31;10.10;99.90
32201;DHT22;18701;45.588;5.288;2024-02-15T04:12:56;10.20;99.90
32201;DHT22;18701;45.588;5.288;2024-02-15T04:15:23;10.20;99.90
32201;DHT22;18701;45.588;5.288;2024-02-15T04:17:49;10.10;99.90
32201;DHT22;18701;45.588;5.288;2024-02-15T04:20:21;10.10;99.90
32201;DHT22;18701;45.588;5.288;2024-02-15T04:22:47;10.00;99.90
32201;DHT22;18701;45.588;5.288;2024-02-15T04:25:15;10.00;99.90
32201;DHT22;18701;45.588;5.288;2024-02-15T04:27:46;9.90;99.90
32201;DHT22;18701;45.588;5.288;2024-02-15T04:30:12;9.80;99.90
32201;DHT22;18701;45.588;5.288;2024-02-15T04:32:38;9.70;99.90
32201;DHT22;18701;45.588;5.288;2024-02-15T04:35:04;9.60;99.90
32201;DHT22;18701;45.588;5.288;2024-02-15T04:37:31;9.60;99.90
32201;DHT22;18701;45.588;5.288;2024-02-15T04:39:58;9.60;99.90
32201;DHT22;18701;45.588;5.288;2024-02-15T04:42:23;9.60;99.90
32201;DHT22;18701;45.588;5.288;2024-02-15T04:44:52;9.60;99.90
32201;DHT22;18701;45.588;5.288;2024-02-15T04:47:19;9.50;99.90
32201;DHT22;18701;45.588;5.288;2024-02-15T04:49:46;9.60;99.90
32201;DHT22;18701;45.588;5.288;2024-02-15T04:52:11;9.60;99.90
32201;DHT22;18701;45.588;5.288;2024-02-15T04:54:37;9.60;99.90
32201;DHT22;18701;45.588;5.288;2024-02-15T04:57:03;9.60;99.90
32201;DHT22;18701;45.588;5.288;2024-02-15T04:59:29;9.50;99.90
32201;DHT22;18701;45.588;5.288;2024-02-15T05:01:54;9.60;99.90
32201;DHT22;18701;45.588;5.288;2024-02-15T05:04:21;9.60;99.90
32201;DHT22;18701;45.588;5.288;2024-02-15T05:06:48;9.60;99.90
32201;DHT22;18701;45.588;5.288;2024-02-15T05:09:14;9.50;99.90
32201;DHT22;18701;45.588;5.288;2024-02-15T05:11:41;9.50;99.90
32201;DHT22;18701;45.588;5.288;2024-02-15T05:14:08;9.40;99.90
32201;DHT22;18701;45.588;5.288;2024-02-15T05:16:36;9.50;99.90
32201;DHT22;18701;45.588;5.288;2024-02-15T05:19:08;9.60;99.90
32201;DHT22;18701;45.588;5.288;2024-02-15T05:21:36;9.50;99.90
32201;DHT22;18701;45.588;5.288;2024-02-15T05:24:03;9.40;99.90
32201;DHT22;18701;45.588;5.288;2024-02-15T05:26:29;9.50;99.90
32201;DHT22;18701;45.588;5.288;2024-02-15T05:28:55;9.40;99.90
32201;DHT22;18701;45.588;5.288;2024-02-15T05:31:21;9.50;99.90
32201;DHT22;18701;45.588;5.288;2024-02-15T05:33:51;9.40;99.90
32201;DHT22;18701;45.588;5.288;2024-02-15T05:36:19;9.40;99.90
32201;DHT22;18701;45.588;5.288;2024-02-15T05:38:46;9.40;99.90
32201;DHT22;18701;45.588;5.288;2024-02-15T05:41:12;9.40;99.90
32201;DHT22;18701;45.588;5.288;2024-02-15T05:43:39;9.40;99.90
32201;DHT22;18701;45.588;5.288;2024-02-15T05:46:07;9.40;99.90
32201;DHT22;18701;45.588;5.288;2024-02-15T05:48:37;9.50;99.90
32201;DHT22;18701;45.588;5.288;2024-02-15T05:51:07;9.40;99.90
32201;DHT22;18701;45.588;5.288;2024-02-15T05:53:34;9.40;99.90
32201;DHT22;18701;45.588;5.288;2024-02-15T05:56:04;9.40;99.90
32201;DHT22;18701;45.588;5.288;2024-02-15T05:58:31;9.40;99.90
32201;DHT22;18701;45.588;5.288;2024-02-15T06:00:57;9.30;99.90
32201;DHT22;18701;45.588;5.288;2024-02-15T06:03:29;9.30;99.90
32201;DHT22;18701;45.588;5.288;2024-02-15T06:05:57;9.30;99.90
32201;DHT22;18701;45.588;5.288;2024-02-15T06:08:30;9.30;99.90
32201;DHT22;18701;45.588;5.288;2024-02-15T06:10:56;9.30;99.90
32201;DHT22;18701;45.588;5.288;2024-02-15T06:13:25;9.30;99.90
32201;DHT22;18701;45.588;5.288;2024-02-15T06:15:51;9.30;99.90
32201;DHT22;18701;45.588;5.288;2024-02-15T06:18:25;9.20;99.90
32201;DHT22;18701;45.588;5.288;2024-02-15T06:20:53;9.20;99.90
32201;DHT22;18701;45.588;5.288;2024-02-15T06:23:22;9.30;99.90
32201;DHT22;18701;45.588;5.288;2024-02-15T06:25:47;9.30;99.90
32201;DHT22;18701;45.588;5.288;2024-02-15T06:28:14;9.30;99.90
32201;DHT22;18701;45.588;5.288;2024-02-15T06:30:59;9.30;99.90
32201;DHT22;18701;45.588;5.288;2024-02-15T06:33:43;9.40;99.90
32201;DHT22;18701;45.588;5.288;2024-02-15T06:36:27;9.40;99.90
32201;DHT22;18701;45.588;5.288;2024-02-15T06:39:11;9.60;99.90
32201;DHT22;18701;45.588;5.288;2024-02-15T06:41:55;9.80;99.90
32201;DHT22;18701;45.588;5.288;2024-02-15T06:44:21;9.90;99.90
32201;DHT22;18701;45.588;5.288;2024-02-15T06:46:49;10.00;99.90
32201;DHT22;18701;45.588;5.288;2024-02-15T06:49:15;10.00;99.90
32201;DHT22;18701;45.588;5.288;2024-02-15T06:51:41;10.00;99.90
32201;DHT22;18701;45.588;5.288;2024-02-15T06:54:07;10.00;99.90
32201;DHT22;18701;45.588;5.288;2024-02-15T06:56:36;10.10;99.90
32201;DHT22;18701;45.588;5.288;2024-02-15T06:59:03;10.10;99.90
32201;DHT22;18701;45.588;5.288;2024-02-15T07:01:28;10.10;99.90
32201;DHT22;18701;45.588;5.288;2024-02-15T07:03:54;10.10;99.90
32201;DHT22;18701;45.588;5.288;2024-02-15T07:06:21;10.00;99.90
32201;DHT22;18701;45.588;5.288;2024-02-15T07:08:47;9.90;99.90
32201;DHT22;18701;45.588;5.288;2024-02-15T07:11:16;9.90;99.90
32201;DHT22;18701;45.588;5.288;2024-02-15T07:13:41;9.90;99.90
32201;DHT22;18701;45.588;5.288;2024-02-15T07:16:08;9.90;99.90
32201;DHT22;18701;45.588;5.288;2024-02-15T07:18:33;9.90;99.90
32201;DHT22;18701;45.588;5.288;2024-02-15T07:20:59;9.90;99.90
32201;DHT22;18701;45.588;5.288;2024-02-15T07:23:26;9.90;99.90
32201;DHT22;18701;45.588;5.288;2024-02-15T07:25:52;9.90;99.90
32201;DHT22;18701;45.588;5.288;2024-02-15T07:28:19;9.90;99.90
32201;DHT22;18701;45.588;5.288;2024-02-15T07:30:46;9.90;99.90
32201;DHT22;18701;45.588;5.288;2024-02-15T07:33:14;9.90;99.90
32201;DHT22;18701;45.588;5.288;2024-02-15T07:35:43;9.90;99.90
32201;DHT22;18701;45.588;5.288;2024-02-15T07:38:09;9.90;99.90
32201;DHT22;18701;45.588;5.288;2024-02-15T07:40:35;10.00;99.90
32201;DHT22;18701;45.588;5.288;2024-02-15T07:43:01;10.00;99.90
32201;DHT22;18701;45.588;5.288;2024-02-15T07:45:28;10.10;99.90
32201;DHT22;18701;45.588;5.288;2024-02-15T07:47:54;10.10;99.90
32201;DHT22;18701;45.588;5.288;2024-02-15T07:50:20;10.20;99.90
32201;DHT22;18701;45.588;5.288;2024-02-15T07:52:48;10.20;99.90
32201;DHT22;18701;45.588;5.288;2024-02-15T07:55:14;10.30;99.90
32201;DHT22;18701;45.588;5.288;2024-02-15T07:57:40;10.30;99.90
32201;DHT22;18701;45.588;5.288;2024-02-15T08:00:06;10.30;99.90
32201;DHT22;18701;45.588;5.288;2024-02-15T08:02:39;10.40;99.90
32201;DHT22;18701;45.588;5.288;2024-02-15T08:05:09;10.40;99.90
32201;DHT22;18701;45.588;5.288;2024-02-15T08:07:42;10.50;99.90
32201;DHT22;18701;45.588;5.288;2024-02-15T08:10:08;10.50;99.90
32201;DHT22;18701;45.588;5.288;2024-02-15T08:12:39;10.60;99.90
32201;DHT22;18701;45.588;5.288;2024-02-15T08:15:05;10.70;99.90
32201;DHT22;18701;45.588;5.288;2024-02-15T08:17:30;10.70;99.90
32201;DHT22;18701;45.588;5.288;2024-02-15T08:19:56;10.70;99.90
32201;DHT22;18701;45.588;5.288;2024-02-15T08:22:21;10.80;99.90
32201;DHT22;18701;45.588;5.288;2024-02-15T08:24:52;10.90;99.90
32201;DHT22;18701;45.588;5.288;2024-02-15T08:27:17;10.90;99.90
32201;DHT22;18701;45.588;5.288;2024-02-15T08:29:43;11.10;99.90
32201;DHT22;18701;45.588;5.288;2024-02-15T08:32:08;11.10;99.90
32201;DHT22;18701;45.588;5.288;2024-02-15T08:34:34;11.20;99.90
32201;DHT22;18701;45.588;5.288;2024-02-15T08:36:59;11.30;99.90
32201;DHT22;18701;45.588;5.288;2024-02-15T08:39:25;11.50;99.90
32201;DHT22;18701;45.588;5.288;2024-02-15T08:41:51;11.60;99.90
32201;DHT22;18701;45.588;5.288;2024-02-15T08:44:18;11.70;99.90
32201;DHT22;18701;45.588;5.288;2024-02-15T08:46:44;11.90;99.90
32201;DHT22;18701;45.588;5.288;2024-02-15T08:49:10;12.00;99.90
32201;DHT22;18701;45.588;5.288;2024-02-15T08:51:39;12.20;99.90
32201;DHT22;18701;45.588;5.288;2024-02-15T08:54:04;12.30;99.90
32201;DHT22;18701;45.588;5.288;2024-02-15T08:56:30;12.40;99.90
32201;DHT22;18701;45.588;5.288;2024-02-15T08:58:55;12.40;99.90
32201;DHT22;18701;45.588;5.288;2024-02-15T09:01:23;12.50;99.90
32201;DHT22;18701;45.588;5.288;2024-02-15T09:03:49;12.50;99.90
32201;DHT22;18701;45.588;5.288;2024-02-15T09:06:14;12.30;99.90
32201;DHT22;18701;45.588;5.288;2024-02-15T09:08:40;12.40;99.90
32201;DHT22;18701;45.588;5.288;2024-02-15T09:11:06;12.40;99.90
32201;DHT22;18701;45.588;5.288;2024-02-15T09:13:31;12.40;99.90
32201;DHT22;18701;45.588;5.288;2024-02-15T09:15:59;12.40;99.90
32201;DHT22;18701;45.588;5.288;2024-02-15T09:18:24;12.30;99.90
32201;DHT22;18701;45.588;5.288;2024-02-15T09:20:50;12.30;99.90
32201;DHT22;18701;45.588;5.288;2024-02-15T09:23:23;12.40;99.90
32201;DHT22;18701;45.588;5.288;2024-02-15T09:25:49;12.40;99.90
32201;DHT22;18701;45.588;5.288;2024-02-15T09:28:17;12.40;99.90
32201;DHT22;18701;45.588;5.288;2024-02-15T09:30:48;12.40;99.90
32201;DHT22;18701;45.588;5.288;2024-02-15T09:33:14;12.40;99.90
32201;DHT22;18701;45.588;5.288;2024-02-15T09:35:39;12.50;99.90
32201;DHT22;18701;45.588;5.288;2024-02-15T09:38:05;12.50;99.90
32201;DHT22;18701;45.588;5.288;2024-02-15T09:40:31;12.40;99.90
32201;DHT22;18701;45.588;5.288;2024-02-15T09:42:57;12.40;99.90
32201;DHT22;18701;45.588;5.288;2024-02-15T09:45:23;12.50;99.90
32201;DHT22;18701;45.588;5.288;2024-02-15T09:47:50;12.50;99.90
32201;DHT22;18701;45.588;5.288;2024-02-15T09:50:17;12.50;99.90
32201;DHT22;18701;45.588;5.288;2024-02-15T09:52:49;12.60;99.90
32201;DHT22;18701;45.588;5.288;2024-02-15T09:55:16;12.80;99.90
32201;DHT22;18701;45.588;5.288;2024-02-15T09:57:43;12.90;99.90
32201;DHT22;18701;45.588;5.288;2024-02-15T10:00:10;12.90;99.90
32201;DHT22;18701;45.588;5.288;2024-02-15T10:02:43;12.90;99.90
32201;DHT22;18701;45.588;5.288;2024-02-15T10:05:10;13.00;99.90
32201;DHT22;18701;45.588;5.288;2024-02-15T10:07:38;13.00;99.90
32201;DHT22;18701;45.588;5.288;2024-02-15T10:10:23;13.30;99.90
32201;DHT22;18701;45.588;5.288;2024-02-15T10:12:50;13.40;99.90
32201;DHT22;18701;45.588;5.288;2024-02-15T10:15:31;13.70;99.90
32201;DHT22;18701;45.588;5.288;2024-02-15T10:17:58;13.90;99.90
32201;DHT22;18701;45.588;5.288;2024-02-15T10:20:24;14.10;99.90
32201;DHT22;18701;45.588;5.288;2024-02-15T10:22:52;14.30;99.90
32201;DHT22;18701;45.588;5.288;2024-02-15T10:25:18;14.30;99.90
32201;DHT22;18701;45.588;5.288;2024-02-15T10:27:44;14.30;99.90
32201;DHT22;18701;45.588;5.288;2024-02-15T10:30:20;14.50;99.90
32201;DHT22;18701;45.588;5.288;2024-02-15T10:32:46;14.60;99.90
32201;DHT22;18701;45.588;5.288;2024-02-15T10:35:20;14.40;99.90
32201;DHT22;18701;45.588;5.288;2024-02-15T10:37:48;14.40;99.90
32201;DHT22;18701;45.588;5.288;2024-02-15T10:40:17;14.40;99.90
32201;DHT22;18701;45.588;5.288;2024-02-15T10:42:48;14.60;99.90
32201;DHT22;18701;45.588;5.288;2024-02-15T10:45:16;14.60;99.90
32201;DHT22;18701;45.588;5.288;2024-02-15T10:47:44;14.50;99.90
32201;DHT22;18701;45.588;5.288;2024-02-15T10:50:11;14.60;99.90
32201;DHT22;18701;45.588;5.288;2024-02-15T10:53:03;14.60;99.90
32201;DHT22;18701;45.588;5.288;2024-02-15T10:55:40;14.70;99.90
32201;DHT22;18701;45.588;5.288;2024-02-15T10:58:08;14.70;99.90
32201;DHT22;18701;45.588;5.288;2024-02-15T11:00:34;14.60;99.90
32201;DHT22;18701;45.588;5.288;2024-02-15T11:03:10;14.50;99.90
32201;DHT22;18701;45.588;5.288;2024-02-15T11:05:40;14.30;99.90
32201;DHT22;18701;45.588;5.288;2024-02-15T11:08:08;14.20;99.90
32201;DHT22;18701;45.588;5.288;2024-02-15T11:10:38;14.20;99.90
32201;DHT22;18701;45.588;5.288;2024-02-15T11:13:09;14.10;99.90
32201;DHT22;18701;45.588;5.288;2024-02-15T11:18:01;14.00;99.90
32201;DHT22;18701;45.588;5.288;2024-02-15T11:23:02;14.10;99.90
32201;DHT22;18701;45.588;5.288;2024-02-15T11:25:37;14.10;99.90
32201;DHT22;18701;45.588;5.288;2024-02-15T11:30:49;14.40;99.90
32201;DHT22;18701;45.588;5.288;2024-02-15T11:33:44;14.50;99.90
32201;DHT22;18701;45.588;5.288;2024-02-15T11:36:10;14.50;99.90
32201;DHT22;18701;45.588;5.288;2024-02-15T11:38:38;14.50;99.90
32201;DHT22;18701;45.588;5.288;2024-02-15T11:41:07;14.50;99.90
32201;DHT22;18701;45.588;5.288;2024-02-15T11:46:14;14.70;99.90
32201;DHT22;18701;45.588;5.288;2024-02-15T11:48:40;14.70;99.90
32201;DHT22;18701;45.588;5.288;2024-02-15T11:51:09;14.80;99.90
32201;DHT22;18701;45.588;5.288;2024-02-15T11:53:37;14.90;99.90
32201;DHT22;18701;45.588;5.288;2024-02-15T11:56:03;14.80;99.90
32201;DHT22;18701;45.588;5.288;2024-02-15T11:58:30;14.90;99.90
32201;DHT22;18701;45.588;5.288;2024-02-15T12:01:11;15.20;99.90
32201;DHT22;18701;45.588;5.288;2024-02-15T12:03:56;15.20;99.90
32201;DHT22;18701;45.588;5.288;2024-02-15T12:06:40;15.20;99.90
32201;DHT22;18701;45.588;5.288;2024-02-15T12:09:24;15.60;99.90
32201;DHT22;18701;45.588;5.288;2024-02-15T12:12:11;15.90;99.90
32201;DHT22;18701;45.588;5.288;2024-02-15T12:14:59;16.30;99.90
32201;DHT22;18701;45.588;5.288;2024-02-15T12:17:43;16.30;99.90
32201;DHT22;18701;45.588;5.288;2024-02-15T12:20:27;16.10;99.90
32201;DHT22;18701;45.588;5.288;2024-02-15T12:22:54;16.20;99.90
32201;DHT22;18701;45.588;5.288;2024-02-15T12:25:20;15.80;99.90
32201;DHT22;18701;45.588;5.288;2024-02-15T12:27:58;15.80;99.90
32201;DHT22;18701;45.588;5.288;2024-02-15T12:30:25;16.20;99.90
32201;DHT22;18701;45.588;5.288;2024-02-15T12:33:12;16.90;99.90
32201;DHT22;18701;45.588;5.288;2024-02-15T12:35:38;18.20;99.90
32201;DHT22;18701;45.588;5.288;2024-02-15T12:38:04;19.00;99.90
32201;DHT22;18701;45.588;5.288;2024-02-15T12:40:35;19.10;99.90
32201;DHT22;18701;45.588;5.288;2024-02-15T12:43:04;22.20;99.90
32201;DHT22;18701;45.588;5.288;2024-02-15T12:45:31;24.30;99.50
32201;DHT22;18701;45.588;5.288;2024-02-15T12:47:57;26.20;96.00
32201;DHT22;18701;45.588;5.288;2024-02-15T12:50:27;24.60;97.40
32201;DHT22;18701;45.588;5.288;2024-02-15T12:52:54;27.20;94.50
32201;DHT22;18701;45.588;5.288;2024-02-15T12:55:22;27.30;92.70
32201;DHT22;18701;45.588;5.288;2024-02-15T12:57:54;28.30;91.20
32201;DHT22;18701;45.588;5.288;2024-02-15T13:00:27;26.60;91.60
32201;DHT22;18701;45.588;5.288;2024-02-15T13:02:55;25.90;91.80
32201;DHT22;18701;45.588;5.288;2024-02-15T13:05:21;27.80;89.50
32201;DHT22;18701;45.588;5.288;2024-02-15T13:07:51;27.80;88.50
32201;DHT22;18701;45.588;5.288;2024-02-15T13:10:17;24.70;90.80
32201;DHT22;18701;45.588;5.288;2024-02-15T13:12:44;23.80;91.40
32201;DHT22;18701;45.588;5.288;2024-02-15T13:15:11;22.20;93.00
32201;DHT22;18701;45.588;5.288;2024-02-15T13:17:43;22.00;94.10
32201;DHT22;18701;45.588;5.288;2024-02-15T13:20:10;23.50;93.50
32201;DHT22;18701;45.588;5.288;2024-02-15T13:22:42;23.40;93.10
32201;DHT22;18701;45.588;5.288;2024-02-15T13:25:09;22.10;94.30
32201;DHT22;18701;45.588;5.288;2024-02-15T13:27:36;23.10;94.10
32201;DHT22;18701;45.588;5.288;2024-02-15T13:30:05;24.20;93.70
32201;DHT22;18701;45.588;5.288;2024-02-15T13:32:38;26.30;91.50
32201;DHT22;18701;45.588;5.288;2024-02-15T13:35:06;26.30;90.80
32201;DHT22;18701;45.588;5.288;2024-02-15T13:37:40;26.40;90.40
32201;DHT22;18701;45.588;5.288;2024-02-15T13:40:06;27.50;89.20
32201;DHT22;18701;45.588;5.288;2024-02-15T13:42:43;28.30;86.90
32201;DHT22;18701;45.588;5.288;2024-02-15T13:45:31;27.80;87.20
32201;DHT22;18701;45.588;5.288;2024-02-15T13:48:03;28.20;85.00
32201;DHT22;18701;45.588;5.288;2024-02-15T13:50:36;27.30;84.30
32201;DHT22;18701;45.588;5.288;2024-02-15T13:53:03;25.50;88.90
32201;DHT22;18701;45.588;5.288;2024-02-15T13:55:29;25.30;88.70
32201;DHT22;18701;45.588;5.288;2024-02-15T13:57:55;26.10;87.60
32201;DHT22;18701;45.588;5.288;2024-02-15T14:00:22;26.30;87.10
32201;DHT22;18701;45.588;5.288;2024-02-15T14:02:52;25.30;89.00
32201;DHT22;18701;45.588;5.288;2024-02-15T14:05:22;25.80;88.30
32201;DHT22;18701;45.588;5.288;2024-02-15T14:07:51;26.10;88.00
32201;DHT22;18701;45.588;5.288;2024-02-15T14:10:21;26.10;87.70
32201;DHT22;18701;45.588;5.288;2024-02-15T14:12:51;26.20;86.90
32201;DHT22;18701;45.588;5.288;2024-02-15T14:15:31;25.20;88.40
32201;DHT22;18701;45.588;5.288;2024-02-15T14:18:07;26.10;87.80
32201;DHT22;18701;45.588;5.288;2024-02-15T14:20:36;26.80;86.30
32201;DHT22;18701;45.588;5.288;2024-02-15T14:23:02;25.90;87.30
32201;DHT22;18701;45.588;5.288;2024-02-15T14:25:31;26.10;85.80
32201;DHT22;18701;45.588;5.288;2024-02-15T14:27:57;26.40;86.20
32201;DHT22;18701;45.588;5.288;2024-02-15T14:30:24;25.50;85.80
32201;DHT22;18701;45.588;5.288;2024-02-15T14:33:08;26.60;86.30
32201;DHT22;18701;45.588;5.288;2024-02-15T14:35:37;25.60;85.80
32201;DHT22;18701;45.588;5.288;2024-02-15T14:38:06;25.50;86.70
32201;DHT22;18701;45.588;5.288;2024-02-15T14:40:35;25.10;87.90
32201;DHT22;18701;45.588;5.288;2024-02-15T14:43:02;24.90;88.20
32201;DHT22;18701;45.588;5.288;2024-02-15T14:45:30;23.90;90.00
32201;DHT22;18701;45.588;5.288;2024-02-15T14:47:58;22.40;90.90
32201;DHT22;18701;45.588;5.288;2024-02-15T14:50:23;20.90;92.90
32201;DHT22;18701;45.588;5.288;2024-02-15T14:52:49;20.50;93.60
32201;DHT22;18701;45.588;5.288;2024-02-15T14:55:15;20.20;94.60
32201;DHT22;18701;45.588;5.288;2024-02-15T14:57:42;19.50;95.50
32201;DHT22;18701;45.588;5.288;2024-02-15T15:00:08;19.20;97.40
32201;DHT22;18701;45.588;5.288;2024-02-15T15:02:46;19.10;98.10
32201;DHT22;18701;45.588;5.288;2024-02-15T15:05:13;18.80;99.20
32201;DHT22;18701;45.588;5.288;2024-02-15T15:08:01;18.90;99.40
32201;DHT22;18701;45.588;5.288;2024-02-15T15:10:46;18.80;99.90
32201;DHT22;18701;45.588;5.288;2024-02-15T15:13:34;18.60;99.90
32201;DHT22;18701;45.588;5.288;2024-02-15T15:16:00;18.20;99.90
32201;DHT22;18701;45.588;5.288;2024-02-15T15:18:28;18.10;99.90
32201;DHT22;18701;45.588;5.288;2024-02-15T15:20:55;18.00;99.90
32201;DHT22;18701;45.588;5.288;2024-02-15T15:23:21;17.90;99.90
32201;DHT22;18701;45.588;5.288;2024-02-15T15:25:47;17.80;99.90
32201;DHT22;18701;45.588;5.288;2024-02-15T15:28:13;17.50;99.90
32201;DHT22;18701;45.588;5.288;2024-02-15T15:30:41;17.30;99.90
32201;DHT22;18701;45.588;5.288;2024-02-15T15:33:16;17.20;99.90
32201;DHT22;18701;45.588;5.288;2024-02-15T15:35:45;17.10;99.90
32201;DHT22;18701;45.588;5.288;2024-02-15T15:38:11;17.00;99.90
32201;DHT22;18701;45.588;5.288;2024-02-15T15:40:37;17.10;99.90
32201;DHT22;18701;45.588;5.288;2024-02-15T15:43:02;16.90;99.90
32201;DHT22;18701;45.588;5.288;2024-02-15T15:45:28;16.90;99.90
32201;DHT22;18701;45.588;5.288;2024-02-15T15:47:54;16.70;99.90
32201;DHT22;18701;45.588;5.288;2024-02-15T15:50:20;16.60;99.90
32201;DHT22;18701;45.588;5.288;2024-02-15T15:52:47;16.60;99.90
32201;DHT22;18701;45.588;5.288;2024-02-15T15:55:13;16.50;99.90
32201;DHT22;18701;45.588;5.288;2024-02-15T15:57:40;16.40;99.90
32201;DHT22;18701;45.588;5.288;2024-02-15T16:00:07;16.30;99.90
32201;DHT22;18701;45.588;5.288;2024-02-15T16:02:40;16.30;99.90
32201;DHT22;18701;45.588;5.288;2024-02-15T16:05:08;16.50;99.90
32201;DHT22;18701;45.588;5.288;2024-02-15T16:07:34;16.90;99.90
32201;DHT22;18701;45.588;5.288;2024-02-15T16:10:00;16.60;99.90
32201;DHT22;18701;45.588;5.288;2024-02-15T16:12:26;16.50;99.90
32201;DHT22;18701;45.588;5.288;2024-02-15T16:14:52;16.40;99.90
32201;DHT22;18701;45.588;5.288;2024-02-15T16:17:20;16.30;99.90